Newmilns, United Kingdom
Current Conditions -  °F | °C
As of 2:20 PM on Tuesday 21 Oct 2014 (Local Time) from EGPK Reporting Station
Rain Showers Rain Showers  
Wind Chill: 36°   Ceiling: Unl
Heat Index: 46°   Visibility: 4mi
Dew Point: 37°   Wind: 41mph
Humidity: 71%   Direction: 290°WNW
Pressure: 29.65"   Gusts: NA
Location:  55.61°N, 4.32°W
Report Text: EGPK 211320Z 29036KT 7000 -SHRA FEW020CB SCT030 08/03 Q1004
Loading
Personal Weather Stations






























Interactive Weather Map New forecast layout! Learn more

10-Day Weather Forecast

Advertisements
Track Severe Weather on mobile